sensor_id;sensor_type;location;lat;lon;timestamp;P1;durP1;ratioP1;P2;durP2;ratioP2
77733;SDS011;66902;41.720;44.796;2023-02-01T00:01:26;57.60;;;28.00;;
77733;SDS011;66902;41.720;44.796;2023-02-01T00:04:00;60.00;;;27.90;;
77733;SDS011;66902;41.720;44.796;2023-02-01T00:06:34;57.50;;;27.90;;
77733;SDS011;66902;41.720;44.796;2023-02-01T00:09:07;60.20;;;27.60;;
77733;SDS011;66902;41.720;44.796;2023-02-01T00:11:41;52.70;;;25.50;;
77733;SDS011;66902;41.720;44.796;2023-02-01T00:14:15;57.90;;;26.50;;
77733;SDS011;66902;41.720;44.796;2023-02-01T00:16:49;57.10;;;27.50;;
77733;SDS011;66902;41.720;44.796;2023-02-01T00:19:23;55.40;;;24.60;;
77733;SDS011;66902;41.720;44.796;2023-02-01T00:21:56;59.00;;;25.40;;
77733;SDS011;66902;41.720;44.796;2023-02-01T00:24:31;55.50;;;26.60;;
77733;SDS011;66902;41.720;44.796;2023-02-01T00:27:05;53.50;;;23.80;;
77733;SDS011;66902;41.720;44.796;2023-02-01T00:29:38;51.70;;;24.40;;
77733;SDS011;66902;41.720;44.796;2023-02-01T00:32:12;56.50;;;25.30;;
77733;SDS011;66902;41.720;44.796;2023-02-01T00:34:46;57.70;;;26.80;;
77733;SDS011;66902;41.720;44.796;2023-02-01T00:37:20;54.70;;;25.80;;
77733;SDS011;66902;41.720;44.796;2023-02-01T00:39:54;55.70;;;26.90;;
77733;SDS011;66902;41.720;44.796;2023-02-01T00:42:29;59.10;;;26.90;;
77733;SDS011;66902;41.720;44.796;2023-02-01T00:45:03;56.30;;;26.00;;
77733;SDS011;66902;41.720;44.796;2023-02-01T00:47:38;58.80;;;26.20;;
77733;SDS011;66902;41.720;44.796;2023-02-01T00:50:12;51.50;;;26.10;;
77733;SDS011;66902;41.720;44.796;2023-02-01T00:52:46;52.90;;;24.60;;
77733;SDS011;66902;41.720;44.796;2023-02-01T00:55:20;53.00;;;24.70;;
77733;SDS011;66902;41.720;44.796;2023-02-01T00:57:54;49.70;;;23.70;;
77733;SDS011;66902;41.720;44.796;2023-02-01T01:00:28;47.50;;;21.90;;
77733;SDS011;66902;41.720;44.796;2023-02-01T01:03:02;50.70;;;24.10;;
77733;SDS011;66902;41.720;44.796;2023-02-01T01:05:47;52.90;;;24.00;;
77733;SDS011;66902;41.720;44.796;2023-02-01T01:08:22;52.60;;;24.20;;
77733;SDS011;66902;41.720;44.796;2023-02-01T01:10:56;54.00;;;24.50;;
77733;SDS011;66902;41.720;44.796;2023-02-01T01:13:30;50.10;;;24.90;;
77733;SDS011;66902;41.720;44.796;2023-02-01T01:16:05;45.90;;;24.70;;
77733;SDS011;66902;41.720;44.796;2023-02-01T01:18:41;52.40;;;24.50;;
77733;SDS011;66902;41.720;44.796;2023-02-01T01:21:15;51.00;;;22.70;;
77733;SDS011;66902;41.720;44.796;2023-02-01T01:23:48;54.00;;;24.30;;
77733;SDS011;66902;41.720;44.796;2023-02-01T01:26:23;56.20;;;24.00;;
77733;SDS011;66902;41.720;44.796;2023-02-01T01:28:58;61.20;;;28.40;;
77733;SDS011;66902;41.720;44.796;2023-02-01T01:31:34;58.10;;;27.50;;
77733;SDS011;66902;41.720;44.796;2023-02-01T01:34:25;58.90;;;26.90;;
77733;SDS011;66902;41.720;44.796;2023-02-01T01:36:58;55.60;;;28.20;;
77733;SDS011;66902;41.720;44.796;2023-02-01T01:39:32;60.30;;;28.10;;
77733;SDS011;66902;41.720;44.796;2023-02-01T01:42:08;55.70;;;26.70;;
77733;SDS011;66902;41.720;44.796;2023-02-01T01:45:02;62.10;;;27.80;;
77733;SDS011;66902;41.720;44.796;2023-02-01T01:47:39;64.70;;;28.10;;
77733;SDS011;66902;41.720;44.796;2023-02-01T01:50:18;56.70;;;26.50;;
77733;SDS011;66902;41.720;44.796;2023-02-01T01:52:55;56.80;;;26.30;;
77733;SDS011;66902;41.720;44.796;2023-02-01T01:55:30;55.80;;;25.20;;
77733;SDS011;66902;41.720;44.796;2023-02-01T01:58:07;52.90;;;24.50;;
77733;SDS011;66902;41.720;44.796;2023-02-01T02:00:42;56.40;;;25.70;;
77733;SDS011;66902;41.720;44.796;2023-02-01T02:03:17;53.20;;;25.00;;
77733;SDS011;66902;41.720;44.796;2023-02-01T02:05:53;52.60;;;24.80;;
77733;SDS011;66902;41.720;44.796;2023-02-01T02:08:27;53.00;;;23.70;;
77733;SDS011;66902;41.720;44.796;2023-02-01T02:11:01;54.00;;;25.00;;
77733;SDS011;66902;41.720;44.796;2023-02-01T02:13:36;50.40;;;23.70;;
77733;SDS011;66902;41.720;44.796;2023-02-01T02:16:17;52.30;;;24.40;;
77733;SDS011;66902;41.720;44.796;2023-02-01T02:19:00;51.90;;;24.50;;
77733;SDS011;66902;41.720;44.796;2023-02-01T02:21:52;52.90;;;23.30;;
77733;SDS011;66902;41.720;44.796;2023-02-01T02:27:42;53.30;;;25.80;;
77733;SDS011;66902;41.720;44.796;2023-02-01T02:30:34;50.80;;;24.10;;
77733;SDS011;66902;41.720;44.796;2023-02-01T02:33:20;56.00;;;24.80;;
77733;SDS011;66902;41.720;44.796;2023-02-01T02:36:09;52.30;;;25.00;;
77733;SDS011;66902;41.720;44.796;2023-02-01T02:38:47;60.20;;;22.90;;
77733;SDS011;66902;41.720;44.796;2023-02-01T02:41:26;51.00;;;24.10;;
77733;SDS011;66902;41.720;44.796;2023-02-01T02:44:21;49.40;;;21.80;;
77733;SDS011;66902;41.720;44.796;2023-02-01T02:47:18;51.30;;;22.90;;
77733;SDS011;66902;41.720;44.796;2023-02-01T02:49:58;48.70;;;20.90;;
77733;SDS011;66902;41.720;44.796;2023-02-01T02:52:56;46.70;;;21.20;;
77733;SDS011;66902;41.720;44.796;2023-02-01T02:58:20;42.00;;;20.10;;
77733;SDS011;66902;41.720;44.796;2023-02-01T03:01:12;41.30;;;19.40;;
77733;SDS011;66902;41.720;44.796;2023-02-01T03:04:04;45.50;;;22.00;;
77733;SDS011;66902;41.720;44.796;2023-02-01T03:06:40;50.20;;;22.30;;
77733;SDS011;66902;41.720;44.796;2023-02-01T03:09:16;41.90;;;20.80;;
77733;SDS011;66902;41.720;44.796;2023-02-01T03:11:55;46.80;;;23.10;;
77733;SDS011;66902;41.720;44.796;2023-02-01T03:14:49;46.90;;;22.00;;
77733;SDS011;66902;41.720;44.796;2023-02-01T03:17:27;41.80;;;20.90;;
77733;SDS011;66902;41.720;44.796;2023-02-01T03:20:05;45.10;;;20.90;;
77733;SDS011;66902;41.720;44.796;2023-02-01T03:22:41;42.70;;;20.60;;
77733;SDS011;66902;41.720;44.796;2023-02-01T03:25:17;44.40;;;21.40;;
77733;SDS011;66902;41.720;44.796;2023-02-01T03:27:53;46.90;;;22.00;;
77733;SDS011;66902;41.720;44.796;2023-02-01T03:30:31;53.10;;;24.80;;
77733;SDS011;66902;41.720;44.796;2023-02-01T03:33:07;48.70;;;23.00;;
77733;SDS011;66902;41.720;44.796;2023-02-01T03:35:54;50.10;;;21.90;;
77733;SDS011;66902;41.720;44.796;2023-02-01T03:38:48;48.30;;;22.40;;
77733;SDS011;66902;41.720;44.796;2023-02-01T03:41:27;48.30;;;22.30;;
77733;SDS011;66902;41.720;44.796;2023-02-01T03:44:06;50.50;;;23.70;;
77733;SDS011;66902;41.720;44.796;2023-02-01T03:46:45;46.60;;;21.20;;
77733;SDS011;66902;41.720;44.796;2023-02-01T03:49:25;46.40;;;21.70;;
77733;SDS011;66902;41.720;44.796;2023-02-01T03:52:00;40.80;;;21.40;;
77733;SDS011;66902;41.720;44.796;2023-02-01T03:54:34;48.10;;;22.30;;
77733;SDS011;66902;41.720;44.796;2023-02-01T03:57:09;44.80;;;20.70;;
77733;SDS011;66902;41.720;44.796;2023-02-01T03:59:45;50.40;;;24.30;;
77733;SDS011;66902;41.720;44.796;2023-02-01T04:02:19;47.70;;;20.60;;
77733;SDS011;66902;41.720;44.796;2023-02-01T04:04:54;48.00;;;21.10;;
77733;SDS011;66902;41.720;44.796;2023-02-01T04:07:28;44.60;;;21.10;;
77733;SDS011;66902;41.720;44.796;2023-02-01T04:10:03;46.00;;;21.50;;
77733;SDS011;66902;41.720;44.796;2023-02-01T04:12:39;45.60;;;20.80;;
77733;SDS011;66902;41.720;44.796;2023-02-01T04:15:13;44.90;;;20.40;;
77733;SDS011;66902;41.720;44.796;2023-02-01T04:17:47;46.00;;;20.20;;
77733;SDS011;66902;41.720;44.796;2023-02-01T04:20:22;42.60;;;20.90;;
77733;SDS011;66902;41.720;44.796;2023-02-01T04:22:57;42.60;;;19.00;;
77733;SDS011;66902;41.720;44.796;2023-02-01T04:25:32;38.60;;;19.20;;
77733;SDS011;66902;41.720;44.796;2023-02-01T04:28:06;48.10;;;23.20;;
77733;SDS011;66902;41.720;44.796;2023-02-01T04:30:39;47.00;;;22.50;;
77733;SDS011;66902;41.720;44.796;2023-02-01T04:33:13;51.80;;;22.90;;
77733;SDS011;66902;41.720;44.796;2023-02-01T04:35:49;52.90;;;23.40;;
77733;SDS011;66902;41.720;44.796;2023-02-01T04:38:25;53.20;;;22.50;;
77733;SDS011;66902;41.720;44.796;2023-02-01T04:40:59;50.10;;;22.50;;
77733;SDS011;66902;41.720;44.796;2023-02-01T04:43:35;47.60;;;21.60;;
77733;SDS011;66902;41.720;44.796;2023-02-01T04:46:09;54.50;;;23.10;;
77733;SDS011;66902;41.720;44.796;2023-02-01T04:48:42;53.60;;;24.10;;
77733;SDS011;66902;41.720;44.796;2023-02-01T04:51:18;52.70;;;22.60;;
77733;SDS011;66902;41.720;44.796;2023-02-01T04:53:52;53.20;;;22.70;;
77733;SDS011;66902;41.720;44.796;2023-02-01T04:56:26;50.90;;;22.40;;
77733;SDS011;66902;41.720;44.796;2023-02-01T04:59:00;55.10;;;22.60;;
77733;SDS011;66902;41.720;44.796;2023-02-01T05:01:33;46.30;;;22.30;;
77733;SDS011;66902;41.720;44.796;2023-02-01T05:04:08;41.90;;;19.40;;
77733;SDS011;66902;41.720;44.796;2023-02-01T05:06:42;40.70;;;18.40;;
77733;SDS011;66902;41.720;44.796;2023-02-01T05:09:15;48.60;;;21.60;;
77733;SDS011;66902;41.720;44.796;2023-02-01T05:11:51;45.00;;;21.30;;
77733;SDS011;66902;41.720;44.796;2023-02-01T05:14:42;43.10;;;20.70;;
77733;SDS011;66902;41.720;44.796;2023-02-01T05:17:17;41.60;;;19.60;;
77733;SDS011;66902;41.720;44.796;2023-02-01T05:19:51;41.90;;;19.90;;
77733;SDS011;66902;41.720;44.796;2023-02-01T05:22:24;44.20;;;20.10;;
77733;SDS011;66902;41.720;44.796;2023-02-01T05:24:58;41.00;;;19.00;;
77733;SDS011;66902;41.720;44.796;2023-02-01T05:27:32;34.10;;;17.00;;
77733;SDS011;66902;41.720;44.796;2023-02-01T05:30:07;40.10;;;19.20;;
77733;SDS011;66902;41.720;44.796;2023-02-01T05:32:44;39.30;;;20.50;;
77733;SDS011;66902;41.720;44.796;2023-02-01T05:35:18;40.90;;;18.50;;
77733;SDS011;66902;41.720;44.796;2023-02-01T05:37:52;40.20;;;20.20;;
77733;SDS011;66902;41.720;44.796;2023-02-01T05:40:26;43.00;;;18.80;;
77733;SDS011;66902;41.720;44.796;2023-02-01T05:43:00;40.00;;;19.60;;
77733;SDS011;66902;41.720;44.796;2023-02-01T05:45:35;39.10;;;18.90;;
77733;SDS011;66902;41.720;44.796;2023-02-01T05:48:10;37.20;;;19.10;;
77733;SDS011;66902;41.720;44.796;2023-02-01T05:50:44;37.60;;;18.40;;
77733;SDS011;66902;41.720;44.796;2023-02-01T05:53:19;39.50;;;18.90;;
77733;SDS011;66902;41.720;44.796;2023-02-01T05:55:54;34.10;;;17.40;;
77733;SDS011;66902;41.720;44.796;2023-02-01T05:58:28;36.50;;;19.00;;
77733;SDS011;66902;41.720;44.796;2023-02-01T06:01:02;37.60;;;18.00;;
77733;SDS011;66902;41.720;44.796;2023-02-01T06:03:36;35.90;;;16.90;;
77733;SDS011;66902;41.720;44.796;2023-02-01T06:06:11;38.90;;;18.60;;
77733;SDS011;66902;41.720;44.796;2023-02-01T06:08:45;30.50;;;16.10;;
77733;SDS011;66902;41.720;44.796;2023-02-01T06:11:20;32.00;;;17.10;;
77733;SDS011;66902;41.720;44.796;2023-02-01T06:14:02;32.80;;;16.40;;
77733;SDS011;66902;41.720;44.796;2023-02-01T06:16:38;35.70;;;19.50;;
77733;SDS011;66902;41.720;44.796;2023-02-01T06:19:12;40.10;;;18.60;;
77733;SDS011;66902;41.720;44.796;2023-02-01T06:21:46;32.30;;;17.60;;
77733;SDS011;66902;41.720;44.796;2023-02-01T06:24:21;37.00;;;18.40;;
77733;SDS011;66902;41.720;44.796;2023-02-01T06:26:58;34.60;;;17.20;;
77733;SDS011;66902;41.720;44.796;2023-02-01T06:29:31;34.40;;;18.40;;
77733;SDS011;66902;41.720;44.796;2023-02-01T06:32:06;35.20;;;18.50;;
77733;SDS011;66902;41.720;44.796;2023-02-01T06:34:41;35.00;;;18.40;;
77733;SDS011;66902;41.720;44.796;2023-02-01T06:37:15;32.40;;;17.00;;
77733;SDS011;66902;41.720;44.796;2023-02-01T06:39:48;30.10;;;15.30;;
77733;SDS011;66902;41.720;44.796;2023-02-01T06:42:23;33.70;;;18.20;;
77733;SDS011;66902;41.720;44.796;2023-02-01T06:44:57;29.00;;;17.50;;
77733;SDS011;66902;41.720;44.796;2023-02-01T06:47:31;36.40;;;18.60;;
77733;SDS011;66902;41.720;44.796;2023-02-01T06:50:06;28.90;;;16.60;;
77733;SDS011;66902;41.720;44.796;2023-02-01T06:52:41;34.90;;;18.30;;
77733;SDS011;66902;41.720;44.796;2023-02-01T06:55:14;31.30;;;18.40;;
77733;SDS011;66902;41.720;44.796;2023-02-01T06:57:48;27.00;;;15.90;;
77733;SDS011;66902;41.720;44.796;2023-02-01T07:00:29;28.40;;;16.60;;
77733;SDS011;66902;41.720;44.796;2023-02-01T07:03:03;29.60;;;17.80;;
77733;SDS011;66902;41.720;44.796;2023-02-01T07:05:37;29.60;;;20.10;;
77733;SDS011;66902;41.720;44.796;2023-02-01T07:08:11;30.20;;;19.70;;
77733;SDS011;66902;41.720;44.796;2023-02-01T07:10:45;32.10;;;21.60;;
77733;SDS011;66902;41.720;44.796;2023-02-01T07:13:19;34.20;;;22.10;;
77733;SDS011;66902;41.720;44.796;2023-02-01T07:15:53;32.90;;;23.30;;
77733;SDS011;66902;41.720;44.796;2023-02-01T07:18:29;29.60;;;24.20;;
77733;SDS011;66902;41.720;44.796;2023-02-01T07:21:05;34.50;;;26.60;;
77733;SDS011;66902;41.720;44.796;2023-02-01T07:23:39;27.80;;;23.20;;
77733;SDS011;66902;41.720;44.796;2023-02-01T07:26:14;30.60;;;25.30;;
77733;SDS011;66902;41.720;44.796;2023-02-01T07:28:47;36.90;;;32.90;;
77733;SDS011;66902;41.720;44.796;2023-02-01T07:31:23;30.80;;;27.70;;
77733;SDS011;66902;41.720;44.796;2023-02-01T07:34:00;28.50;;;25.10;;
77733;SDS011;66902;41.720;44.796;2023-02-01T07:36:38;31.40;;;28.10;;
77733;SDS011;66902;41.720;44.796;2023-02-01T07:39:12;30.40;;;27.00;;
77733;SDS011;66902;41.720;44.796;2023-02-01T07:41:46;30.70;;;26.60;;
77733;SDS011;66902;41.720;44.796;2023-02-01T07:44:23;32.80;;;27.10;;
77733;SDS011;66902;41.720;44.796;2023-02-01T07:46:57;27.70;;;24.60;;
77733;SDS011;66902;41.720;44.796;2023-02-01T07:49:31;29.90;;;26.80;;
77733;SDS011;66902;41.720;44.796;2023-02-01T07:52:05;29.70;;;26.30;;
77733;SDS011;66902;41.720;44.796;2023-02-01T07:54:41;28.40;;;25.30;;
77733;SDS011;66902;41.720;44.796;2023-02-01T07:57:15;27.30;;;24.50;;
77733;SDS011;66902;41.720;44.796;2023-02-01T07:59:49;23.80;;;21.40;;
77733;SDS011;66902;41.720;44.796;2023-02-01T08:02:39;26.10;;;23.30;;
77733;SDS011;66902;41.720;44.796;2023-02-01T08:05:14;25.40;;;22.20;;
77733;SDS011;66902;41.720;44.796;2023-02-01T08:07:49;24.60;;;21.90;;
77733;SDS011;66902;41.720;44.796;2023-02-01T08:13:02;24.70;;;19.60;;
77733;SDS011;66902;41.720;44.796;2023-02-01T08:15:36;27.20;;;19.80;;
77733;SDS011;66902;41.720;44.796;2023-02-01T08:18:09;24.50;;;17.00;;
77733;SDS011;66902;41.720;44.796;2023-02-01T08:20:46;22.40;;;16.50;;
77733;SDS011;66902;41.720;44.796;2023-02-01T08:23:22;25.10;;;18.50;;
77733;SDS011;66902;41.720;44.796;2023-02-01T08:25:56;23.70;;;16.60;;
77733;SDS011;66902;41.720;44.796;2023-02-01T08:28:42;22.30;;;15.70;;
77733;SDS011;66902;41.720;44.796;2023-02-01T08:31:18;18.70;;;13.00;;
77733;SDS011;66902;41.720;44.796;2023-02-01T08:33:54;24.80;;;15.30;;
77733;SDS011;66902;41.720;44.796;2023-02-01T08:36:29;23.30;;;14.60;;
77733;SDS011;66902;41.720;44.796;2023-02-01T08:39:03;26.40;;;16.70;;
77733;SDS011;66902;41.720;44.796;2023-02-01T08:41:39;25.10;;;14.50;;
77733;SDS011;66902;41.720;44.796;2023-02-01T08:44:33;18.70;;;11.90;;
77733;SDS011;66902;41.720;44.796;2023-02-01T08:47:09;27.20;;;15.40;;
77733;SDS011;66902;41.720;44.796;2023-02-01T08:49:43;25.90;;;15.20;;
77733;SDS011;66902;41.720;44.796;2023-02-01T08:52:17;25.20;;;13.50;;
77733;SDS011;66902;41.720;44.796;2023-02-01T08:54:51;32.10;;;18.30;;
77733;SDS011;66902;41.720;44.796;2023-02-01T08:57:28;27.70;;;14.00;;
77733;SDS011;66902;41.720;44.796;2023-02-01T09:00:02;24.30;;;13.30;;
77733;SDS011;66902;41.720;44.796;2023-02-01T09:02:38;25.00;;;14.20;;
77733;SDS011;66902;41.720;44.796;2023-02-01T09:05:13;24.60;;;13.50;;
77733;SDS011;66902;41.720;44.796;2023-02-01T09:07:49;21.90;;;12.50;;
77733;SDS011;66902;41.720;44.796;2023-02-01T09:10:23;25.40;;;14.30;;
77733;SDS011;66902;41.720;44.796;2023-02-01T09:13:03;23.30;;;12.70;;
77733;SDS011;66902;41.720;44.796;2023-02-01T09:15:38;24.50;;;13.80;;
77733;SDS011;66902;41.720;44.796;2023-02-01T09:18:12;22.60;;;12.70;;
77733;SDS011;66902;41.720;44.796;2023-02-01T09:20:46;25.60;;;13.50;;
77733;SDS011;66902;41.720;44.796;2023-02-01T09:23:20;23.50;;;13.20;;
77733;SDS011;66902;41.720;44.796;2023-02-01T09:25:54;23.90;;;12.70;;
77733;SDS011;66902;41.720;44.796;2023-02-01T09:28:31;24.80;;;13.20;;
77733;SDS011;66902;41.720;44.796;2023-02-01T09:31:04;22.20;;;11.70;;
77733;SDS011;66902;41.720;44.796;2023-02-01T09:33:38;23.70;;;13.20;;
77733;SDS011;66902;41.720;44.796;2023-02-01T09:36:12;27.80;;;13.50;;
77733;SDS011;66902;41.720;44.796;2023-02-01T09:38:47;24.20;;;12.60;;
77733;SDS011;66902;41.720;44.796;2023-02-01T09:41:26;21.50;;;12.10;;
77733;SDS011;66902;41.720;44.796;2023-02-01T09:44:11;22.50;;;13.50;;
77733;SDS011;66902;41.720;44.796;2023-02-01T09:46:52;25.50;;;13.40;;
77733;SDS011;66902;41.720;44.796;2023-02-01T09:49:28;21.30;;;12.10;;
77733;SDS011;66902;41.720;44.796;2023-02-01T09:52:04;25.10;;;13.30;;
77733;SDS011;66902;41.720;44.796;2023-02-01T09:54:42;21.00;;;12.00;;
77733;SDS011;66902;41.720;44.796;2023-02-01T09:57:23;19.60;;;11.70;;
77733;SDS011;66902;41.720;44.796;2023-02-01T10:00:00;23.80;;;11.70;;
77733;SDS011;66902;41.720;44.796;2023-02-01T10:02:37;19.60;;;10.30;;
77733;SDS011;66902;41.720;44.796;2023-02-01T10:05:15;19.20;;;11.10;;
77733;SDS011;66902;41.720;44.796;2023-02-01T10:07:54;20.40;;;11.60;;
77733;SDS011;66902;41.720;44.796;2023-02-01T10:10:34;18.10;;;9.70;;
77733;SDS011;66902;41.720;44.796;2023-02-01T10:13:15;19.70;;;10.80;;
77733;SDS011;66902;41.720;44.796;2023-02-01T10:15:59;17.50;;;10.20;;
77733;SDS011;66902;41.720;44.796;2023-02-01T10:18:54;17.90;;;10.40;;
77733;SDS011;66902;41.720;44.796;2023-02-01T10:21:38;18.00;;;10.80;;
77733;SDS011;66902;41.720;44.796;2023-02-01T10:24:31;18.20;;;10.40;;
77733;SDS011;66902;41.720;44.796;2023-02-01T10:27:16;18.20;;;8.40;;
77733;SDS011;66902;41.720;44.796;2023-02-01T10:29:54;15.00;;;8.10;;
77733;SDS011;66902;41.720;44.796;2023-02-01T10:32:31;17.30;;;9.70;;
77733;SDS011;66902;41.720;44.796;2023-02-01T10:35:08;17.00;;;10.40;;
77733;SDS011;66902;41.720;44.796;2023-02-01T10:37:48;21.20;;;11.40;;
77733;SDS011;66902;41.720;44.796;2023-02-01T10:40:23;15.20;;;9.30;;
77733;SDS011;66902;41.720;44.796;2023-02-01T10:42:59;15.10;;;9.20;;
77733;SDS011;66902;41.720;44.796;2023-02-01T10:45:34;13.90;;;7.50;;
77733;SDS011;66902;41.720;44.796;2023-02-01T10:48:09;9.30;;;5.70;;
77733;SDS011;66902;41.720;44.796;2023-02-01T10:50:46;9.70;;;5.90;;
77733;SDS011;66902;41.720;44.796;2023-02-01T10:53:23;10.30;;;5.80;;
77733;SDS011;66902;41.720;44.796;2023-02-01T10:56:04;11.50;;;7.20;;
77733;SDS011;66902;41.720;44.796;2023-02-01T10:58:44;14.00;;;9.00;;
77733;SDS011;66902;41.720;44.796;2023-02-01T11:01:21;16.90;;;9.90;;
77733;SDS011;66902;41.720;44.796;2023-02-01T11:03:59;18.10;;;10.20;;
77733;SDS011;66902;41.720;44.796;2023-02-01T11:06:37;16.50;;;10.30;;
77733;SDS011;66902;41.720;44.796;2023-02-01T11:09:16;16.40;;;10.40;;
77733;SDS011;66902;41.720;44.796;2023-02-01T11:11:56;16.30;;;9.60;;
77733;SDS011;66902;41.720;44.796;2023-02-01T11:14:37;16.50;;;9.60;;
77733;SDS011;66902;41.720;44.796;2023-02-01T11:17:20;17.50;;;9.10;;
77733;SDS011;66902;41.720;44.796;2023-02-01T11:19:58;16.30;;;9.80;;
77733;SDS011;66902;41.720;44.796;2023-02-01T11:22:33;19.00;;;10.00;;
77733;SDS011;66902;41.720;44.796;2023-02-01T11:25:09;19.30;;;9.80;;
77733;SDS011;66902;41.720;44.796;2023-02-01T11:27:47;16.20;;;9.90;;
77733;SDS011;66902;41.720;44.796;2023-02-01T11:30:27;13.00;;;8.40;;
77733;SDS011;66902;41.720;44.796;2023-02-01T11:33:09;17.30;;;10.70;;
77733;SDS011;66902;41.720;44.796;2023-02-01T11:35:48;19.60;;;11.00;;
77733;SDS011;66902;41.720;44.796;2023-02-01T11:38:25;19.80;;;10.10;;
77733;SDS011;66902;41.720;44.796;2023-02-01T11:41:13;17.80;;;9.90;;
77733;SDS011;66902;41.720;44.796;2023-02-01T11:43:54;19.60;;;11.70;;
77733;SDS011;66902;41.720;44.796;2023-02-01T11:46:30;17.10;;;10.40;;
77733;SDS011;66902;41.720;44.796;2023-02-01T11:49:19;18.60;;;10.40;;
77733;SDS011;66902;41.720;44.796;2023-02-01T11:51:58;14.60;;;9.70;;
77733;SDS011;66902;41.720;44.796;2023-02-01T11:54:45;18.10;;;10.30;;
77733;SDS011;66902;41.720;44.796;2023-02-01T11:57:31;15.10;;;8.60;;
77733;SDS011;66902;41.720;44.796;2023-02-01T12:00:16;14.50;;;9.20;;
77733;SDS011;66902;41.720;44.796;2023-02-01T12:03:16;16.40;;;10.20;;
77733;SDS011;66902;41.720;44.796;2023-02-01T12:06:21;19.50;;;11.50;;
77733;SDS011;66902;41.720;44.796;2023-02-01T12:09:06;18.70;;;12.20;;
77733;SDS011;66902;41.720;44.796;2023-02-01T12:11:54;15.80;;;10.10;;
77733;SDS011;66902;41.720;44.796;2023-02-01T12:14:38;21.70;;;12.10;;
77733;SDS011;66902;41.720;44.796;2023-02-01T12:20:15;20.90;;;12.80;;
77733;SDS011;66902;41.720;44.796;2023-02-01T12:25:45;22.60;;;13.00;;
77733;SDS011;66902;41.720;44.796;2023-02-01T12:28:43;21.40;;;13.10;;
77733;SDS011;66902;41.720;44.796;2023-02-01T12:31:33;21.50;;;12.80;;
77733;SDS011;66902;41.720;44.796;2023-02-01T12:37:39;23.00;;;13.90;;
77733;SDS011;66902;41.720;44.796;2023-02-01T12:40:28;26.20;;;14.20;;
77733;SDS011;66902;41.720;44.796;2023-02-01T12:43:11;25.10;;;14.70;;
77733;SDS011;66902;41.720;44.796;2023-02-01T12:45:53;27.70;;;15.80;;
77733;SDS011;66902;41.720;44.796;2023-02-01T12:48:31;25.00;;;14.30;;
77733;SDS011;66902;41.720;44.796;2023-02-01T12:51:13;28.00;;;15.70;;
77733;SDS011;66902;41.720;44.796;2023-02-01T12:53:50;25.50;;;15.00;;
77733;SDS011;66902;41.720;44.796;2023-02-01T12:56:26;24.50;;;14.40;;
77733;SDS011;66902;41.720;44.796;2023-02-01T12:59:03;25.40;;;14.10;;
77733;SDS011;66902;41.720;44.796;2023-02-01T13:01:42;27.30;;;16.60;;
77733;SDS011;66902;41.720;44.796;2023-02-01T13:04:23;29.00;;;15.80;;
77733;SDS011;66902;41.720;44.796;2023-02-01T13:07:01;27.00;;;15.70;;
77733;SDS011;66902;41.720;44.796;2023-02-01T13:09:41;24.90;;;13.80;;
77733;SDS011;66902;41.720;44.796;2023-02-01T13:12:18;25.70;;;14.30;;
77733;SDS011;66902;41.720;44.796;2023-02-01T13:14:56;23.60;;;12.80;;
77733;SDS011;66902;41.720;44.796;2023-02-01T13:17:32;26.90;;;14.30;;
77733;SDS011;66902;41.720;44.796;2023-02-01T13:20:13;24.80;;;14.70;;
77733;SDS011;66902;41.720;44.796;2023-02-01T13:22:51;26.80;;;14.90;;
77733;SDS011;66902;41.720;44.796;2023-02-01T13:25:31;26.10;;;16.50;;
77733;SDS011;66902;41.720;44.796;2023-02-01T13:28:10;27.00;;;14.70;;
77733;SDS011;66902;41.720;44.796;2023-02-01T13:30:52;25.70;;;13.70;;
77733;SDS011;66902;41.720;44.796;2023-02-01T13:39:25;27.80;;;16.30;;
77733;SDS011;66902;41.720;44.796;2023-02-01T13:42:17;28.00;;;16.10;;
77733;SDS011;66902;41.720;44.796;2023-02-01T13:44:57;29.60;;;16.90;;
77733;SDS011;66902;41.720;44.796;2023-02-01T13:47:45;31.80;;;17.70;;
77733;SDS011;66902;41.720;44.796;2023-02-01T13:50:23;31.30;;;17.40;;
77733;SDS011;66902;41.720;44.796;2023-02-01T13:53:11;32.10;;;17.10;;
77733;SDS011;66902;41.720;44.796;2023-02-01T13:55:49;32.50;;;16.90;;
77733;SDS011;66902;41.720;44.796;2023-02-01T13:58:33;30.30;;;16.50;;
77733;SDS011;66902;41.720;44.796;2023-02-01T14:04:06;30.70;;;17.40;;
77733;SDS011;66902;41.720;44.796;2023-02-01T14:07:31;35.20;;;17.60;;
77733;SDS011;66902;41.720;44.796;2023-02-01T14:13:13;31.70;;;17.20;;
77733;SDS011;66902;41.720;44.796;2023-02-01T14:16:13;35.70;;;18.90;;
77733;SDS011;66902;41.720;44.796;2023-02-01T14:18:54;29.10;;;16.90;;
77733;SDS011;66902;41.720;44.796;2023-02-01T14:21:35;31.40;;;17.70;;
77733;SDS011;66902;41.720;44.796;2023-02-01T14:24:27;36.90;;;19.60;;
77733;SDS011;66902;41.720;44.796;2023-02-01T14:27:03;31.20;;;17.40;;
77733;SDS011;66902;41.720;44.796;2023-02-01T14:29:51;34.30;;;16.90;;
77733;SDS011;66902;41.720;44.796;2023-02-01T14:32:30;28.40;;;14.50;;
77733;SDS011;66902;41.720;44.796;2023-02-01T14:35:07;30.20;;;16.90;;
77733;SDS011;66902;41.720;44.796;2023-02-01T14:37:49;31.20;;;17.50;;
77733;SDS011;66902;41.720;44.796;2023-02-01T14:40:26;32.30;;;16.60;;
77733;SDS011;66902;41.720;44.796;2023-02-01T14:43:01;33.70;;;18.40;;
77733;SDS011;66902;41.720;44.796;2023-02-01T14:45:49;37.40;;;19.70;;
77733;SDS011;66902;41.720;44.796;2023-02-01T14:51:16;30.40;;;17.20;;
77733;SDS011;66902;41.720;44.796;2023-02-01T14:53:52;32.70;;;18.50;;
77733;SDS011;66902;41.720;44.796;2023-02-01T14:56:26;32.50;;;18.40;;
77733;SDS011;66902;41.720;44.796;2023-02-01T14:59:02;31.80;;;17.50;;
77733;SDS011;66902;41.720;44.796;2023-02-01T15:01:45;34.10;;;18.70;;
77733;SDS011;66902;41.720;44.796;2023-02-01T15:04:25;35.60;;;18.60;;
77733;SDS011;66902;41.720;44.796;2023-02-01T15:07:04;36.60;;;20.00;;
77733;SDS011;66902;41.720;44.796;2023-02-01T15:09:42;33.80;;;18.70;;
77733;SDS011;66902;41.720;44.796;2023-02-01T15:12:18;36.80;;;18.40;;
77733;SDS011;66902;41.720;44.796;2023-02-01T15:18:17;36.70;;;20.30;;
77733;SDS011;66902;41.720;44.796;2023-02-01T15:20:57;36.30;;;18.90;;
77733;SDS011;66902;41.720;44.796;2023-02-01T15:23:48;39.30;;;20.60;;
77733;SDS011;66902;41.720;44.796;2023-02-01T15:26:26;39.20;;;19.10;;
77733;SDS011;66902;41.720;44.796;2023-02-01T15:28:58;39.80;;;19.90;;
77733;SDS011;66902;41.720;44.796;2023-02-01T15:31:35;38.30;;;19.50;;
77733;SDS011;66902;41.720;44.796;2023-02-01T15:34:09;35.10;;;19.10;;
77733;SDS011;66902;41.720;44.796;2023-02-01T15:36:41;37.10;;;19.60;;
77733;SDS011;66902;41.720;44.796;2023-02-01T15:39:29;36.30;;;18.90;;
77733;SDS011;66902;41.720;44.796;2023-02-01T15:49:01;32.50;;;17.60;;
77733;SDS011;66902;41.720;44.796;2023-02-01T15:51:36;33.70;;;17.80;;
77733;SDS011;66902;41.720;44.796;2023-02-01T15:54:16;31.20;;;17.60;;
77733;SDS011;66902;41.720;44.796;2023-02-01T15:56:52;34.10;;;18.70;;